Time;durP1;ratioP1;P1;durP2;ratioP2;P2;SDS_P1;SDS_P2;PMS_P1;PMS_P2;Temp;Humidity;BMP_temperature;BMP_pressure;BME280_temperature;BME280_humidity;BME280_pressure;Samples;Min_cycle;Max_cycle;Signal;HPM_P1;HPM_P2
2023/12/09 00:00:24;;;;;;;73.20;32.50;;;;;;;-3.13;96.56;98665.39;437359;1250;111232;-41
2023/12/09 00:10:51;;;;;;;62.40;30.50;;;;;;;-3.06;96.33;98656.92;437435;1248;109398;-40
2023/12/09 00:20:59;;;;;;;63.00;30.50;;;;;;;-3.06;96.60;98654.33;437325;1250;99272;-40
2023/12/09 00:31:06;;;;;;;85.20;35.80;;;;;;;-3.08;96.56;98644.77;437382;1248;108016;-39
2023/12/09 00:41:13;;;;;;;77.90;31.60;;;;;;;-3.28;96.75;98628.72;437589;1248;99234;-40
2023/12/09 00:51:20;;;;;;;82.00;33.80;;;;;;;-3.29;96.85;98634.15;437081;1247;500508;-40
2023/12/09 01:01:27;;;;;;;63.40;28.30;;;;;;;-3.28;96.96;98636.32;437491;1250;107571;-40
2023/12/09 01:11:35;;;;;;;64.80;30.20;;;;;;;-3.21;96.89;98645.86;437236;1251;97950;-40
2023/12/09 01:21:42;;;;;;;77.50;34.90;;;;;;;-3.24;97.03;98643.48;437580;1250;108436;-39
2023/12/09 01:31:49;;;;;;;79.10;32.20;;;;;;;-3.25;97.23;98640.00;437428;1248;98801;-40
2023/12/09 01:41:56;;;;;;;68.80;30.40;;;;;;;-3.15;97.11;98631.23;437344;1260;112571;-40
2023/12/09 01:52:02;;;;;;;74.20;32.10;;;;;;;-3.04;97.37;98632.35;437732;1250;108054;-40
2023/12/09 02:02:09;;;;;;;83.50;33.90;;;;;;;-2.99;97.29;98631.14;437439;1248;99216;-40
2023/12/09 02:12:15;;;;;;;86.60;37.40;;;;;;;-2.98;97.20;98622.00;437487;1248;108892;-40
2023/12/09 02:22:22;;;;;;;70.40;30.90;;;;;;;-3.02;97.42;98618.19;438209;1250;97970;-39
2023/12/09 02:32:31;;;;;;;74.20;31.70;;;;;;;-2.94;97.34;98613.09;438069;1258;112729;-39
2023/12/09 02:42:38;;;;;;;72.30;31.40;;;;;;;-2.84;97.45;98621.66;438143;1250;107976;-40
2023/12/09 02:52:45;;;;;;;93.60;37.50;;;;;;;-2.78;97.47;98612.80;437994;1245;98804;-42
2023/12/09 03:02:52;;;;;;;104.90;43.30;;;;;;;-2.78;97.64;98616.09;438066;1258;108066;-42
2023/12/09 03:13:00;;;;;;;79.00;35.50;;;;;;;-2.74;97.68;98619.48;438082;1258;99224;-40
2023/12/09 03:23:07;;;;;;;78.50;34.50;;;;;;;-2.64;97.50;98603.86;438099;1258;111948;-39
2023/12/09 03:33:14;;;;;;;90.30;38.00;;;;;;;-2.60;97.58;98609.38;437915;1245;108018;-40
2023/12/09 03:43:21;;;;;;;95.20;41.30;;;;;;;-2.65;97.64;98608.42;438200;1259;98816;-39
2023/12/09 03:53:29;;;;;;;80.30;36.20;;;;;;;-2.70;97.64;98609.27;438087;1251;111730;-40
2023/12/09 04:03:36;;;;;;;88.90;40.10;;;;;;;-2.61;97.50;98609.10;438062;1251;106227;-39
2023/12/09 04:13:43;;;;;;;76.60;34.10;;;;;;;-2.52;97.52;98604.94;438061;1251;99206;-40
2023/12/09 04:23:50;;;;;;;92.10;37.10;;;;;;;-2.37;97.70;98608.20;437898;1245;108350;-39
2023/12/09 04:33:57;;;;;;;102.00;43.80;;;;;;;-2.35;97.90;98608.17;437935;1249;99175;-40
2023/12/09 04:44:05;;;;;;;75.40;35.50;;;;;;;-2.29;97.95;98605.85;438042;1250;111818;-41
2023/12/09 04:54:12;;;;;;;76.70;33.80;;;;;;;-2.07;98.06;98600.30;438090;1251;108135;-40
2023/12/09 05:04:19;;;;;;;62.50;30.40;;;;;;;-1.85;98.15;98596.30;438015;1251;99246;-40
2023/12/09 05:14:26;;;;;;;78.30;37.50;;;;;;;-1.69;98.12;98591.98;437948;1251;109122;-39
2023/12/09 05:24:33;;;;;;;76.80;34.60;;;;;;;-1.68;98.23;98588.55;438173;1251;97972;-39
2023/12/09 05:34:39;;;;;;;75.30;34.70;;;;;;;-1.54;98.19;98580.92;438029;1251;111520;-39
2023/12/09 05:44:47;;;;;;;59.00;29.30;;;;;;;-1.41;98.23;98584.69;438023;1244;106925;-40
2023/12/09 05:54:54;;;;;;;59.50;28.30;;;;;;;-1.28;98.20;98580.08;438174;1249;97974;-40
2023/12/09 06:05:01;;;;;;;79.60;38.20;;;;;;;-1.21;98.29;98574.72;438107;1251;109327;-40
2023/12/09 06:15:09;;;;;;;50.10;26.00;;;;;;;-1.16;98.31;98578.52;438260;1244;99218;-40
2023/12/09 06:25:16;;;;;;;46.20;24.90;;;;;;;-1.01;98.36;98585.27;438112;1244;111861;-40
2023/12/09 06:45:28;;;;;;;56.30;30.90;;;;;;;-0.83;98.18;98587.77;437935;1251;99066;-40
2023/12/09 06:55:35;;;;;;;48.60;28.20;;;;;;;-0.81;98.29;98585.40;438211;1250;111749;-39
2023/12/09 07:05:42;;;;;;;50.00;27.50;;;;;;;-0.70;97.99;98589.45;437994;1250;106975;-40
2023/12/09 07:15:48;;;;;;;42.60;21.40;;;;;;;-0.58;98.05;98584.12;438184;1245;99100;-43
2023/12/09 07:36:02;;;;;;;43.50;21.80;;;;;;;-0.47;98.06;98591.96;438239;1251;99198;-40
2023/12/09 07:46:09;;;;;;;34.20;19.70;;;;;;;-0.29;97.85;98587.77;438131;1250;111921;-41
2023/12/09 07:56:16;;;;;;;39.70;21.00;;;;;;;-0.15;97.70;98584.95;437950;1249;109219;-39
2023/12/09 08:06:23;;;;;;;46.80;23.10;;;;;;;-0.12;97.63;98571.11;438109;1245;99296;-41
2023/12/09 08:16:30;;;;;;;40.80;21.80;;;;;;;-0.15;97.51;98574.35;438169;1251;111875;-40
2023/12/09 08:26:39;;;;;;;28.80;17.30;;;;;;;-0.05;97.25;98576.39;438007;1250;109390;-40
2023/12/09 08:36:46;;;;;;;25.10;16.20;;;;;;;0.11;97.23;98570.70;438139;1250;99212;-40
2023/12/09 08:46:53;;;;;;;32.30;17.90;;;;;;;0.25;97.16;98579.91;438148;1250;107801;-40
2023/12/09 08:57:00;;;;;;;35.60;19.20;;;;;;;0.23;97.14;98578.41;438070;1250;99207;-40
2023/12/09 09:07:06;;;;;;;23.30;15.00;;;;;;;0.21;97.02;98583.25;438157;1250;111991;-40
2023/12/09 09:17:12;;;;;;;26.80;15.20;;;;;;;0.32;96.93;98574.30;438071;1245;106757;-40
2023/12/09 09:37:25;;;;;;;30.30;17.30;;;;;;;0.65;97.00;98554.89;438181;1250;107145;-42
2023/12/09 09:47:31;;;;;;;22.40;14.10;;;;;;;0.66;96.75;98543.77;437993;1251;97990;-40
2023/12/09 09:57:38;;;;;;;22.60;13.60;;;;;;;0.74;96.52;98538.87;438171;1244;111754;-40
2023/12/09 10:07:46;;;;;;;19.50;12.70;;;;;;;0.74;96.58;98533.12;438007;1244;107942;-39
2023/12/09 10:17:53;;;;;;;27.60;17.40;;;;;;;0.71;96.54;98536.27;438159;1250;99231;-39
2023/12/09 10:28:11;;;;;;;26.90;15.80;;;;;;;0.62;96.63;98527.00;438294;1249;112129;-39
2023/12/09 10:38:17;;;;;;;26.40;15.30;;;;;;;0.67;96.33;98521.61;438034;1250;109295;-40
2023/12/09 10:48:25;;;;;;;19.20;12.20;;;;;;;0.77;96.38;98515.56;437991;1250;99343;-39
2023/12/09 10:58:32;;;;;;;33.40;20.50;;;;;;;0.78;96.28;98502.77;437992;1249;109381;-39
2023/12/09 11:28:59;;;;;;;;;;;;;;;0.85;96.19;98485.84;438143;1251;106054;-40
2023/12/09 11:49:28;;;;;;;21.00;14.50;;;;;;;0.83;96.09;98476.61;438131;1245;110422;-39
2023/12/09 12:09:43;;;;;;;29.20;16.70;;;;;;;0.85;96.02;98464.81;438003;1244;98838;-40
2023/12/09 12:19:49;;;;;;;38.90;21.40;;;;;;;0.88;96.22;98455.72;438188;1250;107891;-40
2023/12/09 12:29:57;;;;;;;32.60;17.10;;;;;;;0.79;96.07;98448.00;438233;1248;99230;-40
2023/12/09 12:40:05;;;;;;;23.00;15.60;;;;;;;0.81;96.00;98438.14;438163;1244;110430;-41
2023/12/09 12:50:13;;;;;;;21.70;14.70;;;;;;;0.82;96.02;98426.71;437788;1250;336619;-40
2023/12/09 13:00:20;;;;;;;37.10;18.80;;;;;;;0.79;96.05;98422.67;438224;1248;98051;-40
2023/12/09 13:10:27;;;;;;;26.70;16.20;;;;;;;0.75;96.21;98413.33;438165;1251;109226;-41
2023/12/09 13:30:40;;;;;;;22.50;13.60;;;;;;;0.79;96.02;98394.65;438004;1250;99235;-40
2023/12/09 13:40:48;;;;;;;34.30;19.20;;;;;;;0.74;96.04;98397.95;438019;1250;108595;-40
2023/12/09 14:01:01;;;;;;;29.90;17.10;;;;;;;0.57;96.13;98388.19;438148;1250;110845;-40
2023/12/09 14:11:10;;;;;;;24.50;15.20;;;;;;;0.50;96.17;98379.98;438153;1247;107179;-39
2023/12/09 14:21:17;;;;;;;25.40;15.70;;;;;;;0.46;96.13;98376.47;437732;1250;99262;-40
2023/12/09 14:31:24;;;;;;;77.70;45.30;;;;;;;0.40;96.30;98373.70;436514;1250;107985;-41
2023/12/09 14:41:31;;;;;;;38.10;20.70;;;;;;;0.28;96.35;98366.73;436332;1253;98482;-39
2023/12/09 14:51:38;;;;;;;33.00;18.50;;;;;;;0.25;96.25;98362.20;436465;1253;111008;-40
2023/12/09 15:01:50;;;;;;;36.20;20.90;;;;;;;0.24;96.21;98347.90;436305;1248;107089;-39
2023/12/09 15:11:57;;;;;;;33.60;18.60;;;;;;;0.23;96.18;98333.23;436397;1253;98807;-40
2023/12/09 15:22:03;;;;;;;49.80;26.10;;;;;;;0.17;96.29;98329.76;436520;1253;108085;-38
2023/12/09 15:42:24;;;;;;;36.00;17.40;;;;;;;0.08;96.26;98301.48;437727;1250;110348;-38
2023/12/09 15:52:29;;;;;;;35.00;18.70;;;;;;;0.10;96.30;98290.20;437661;1250;107523;-40
2023/12/09 16:02:36;;;;;;;40.50;22.40;;;;;;;0.12;96.24;98289.63;437545;1250;98832;-39
2023/12/09 16:12:45;;;;;;;55.70;30.10;;;;;;;0.05;96.35;98284.34;437788;1250;109450;-40
2023/12/09 16:22:52;;;;;;;34.80;20.90;;;;;;;0.04;96.28;98272.48;437687;1246;99243;-40
2023/12/09 16:32:58;;;;;;;33.10;19.40;;;;;;;0.10;96.23;98261.62;437551;1250;112194;-41
2023/12/09 16:43:05;;;;;;;46.70;24.00;;;;;;;0.12;96.19;98262.42;437494;1248;107066;-40
2023/12/09 16:53:18;;;;;;;57.60;28.10;;;;;;;0.05;96.28;98250.06;437560;1250;98354;-40
2023/12/09 17:03:25;;;;;;;29.50;17.80;;;;;;;0.04;96.20;98255.48;437426;1250;112420;-39
2023/12/09 17:13:32;;;;;;;31.30;18.30;;;;;;;0.08;96.14;98230.80;437584;1248;108236;-39
2023/12/09 17:23:39;;;;;;;36.40;20.90;;;;;;;0.11;96.01;98204.69;437540;1246;99247;-40
2023/12/09 17:33:47;;;;;;;46.40;24.90;;;;;;;-0.01;95.85;98185.36;437593;1248;107958;-39
2023/12/09 17:43:55;;;;;;;39.00;21.10;;;;;;;-0.26;95.72;98190.11;437604;1250;99301;-39
2023/12/09 18:04:08;;;;;;;33.00;18.30;;;;;;;-0.43;95.61;98172.58;437421;1248;107274;-39
2023/12/09 18:24:21;;;;;;;46.10;25.50;;;;;;;-0.47;95.45;98133.12;437605;1250;108840;-39
2023/12/09 18:34:29;;;;;;;33.40;17.20;;;;;;;-0.64;95.67;98112.67;437556;1250;99238;-40
2023/12/09 18:44:36;;;;;;;30.10;17.00;;;;;;;-0.68;95.29;98102.23;437712;1250;111882;-40
2023/12/09 18:54:43;;;;;;;34.20;18.30;;;;;;;-0.73;95.31;98073.54;437520;1252;108499;-38
2023/12/09 19:04:50;;;;;;;48.30;24.20;;;;;;;-0.82;95.39;98055.78;437551;1250;99110;-40
2023/12/09 19:14:57;;;;;;;58.40;28.80;;;;;;;-0.97;95.44;98048.23;437464;1250;108143;-39
2023/12/09 19:25:05;;;;;;;53.30;28.80;;;;;;;-1.04;95.09;98047.76;437544;1250;97995;-41
2023/12/09 19:35:12;;;;;;;61.90;31.20;;;;;;;-1.12;95.15;98036.40;437680;1248;111237;-40
2023/12/09 19:45:19;;;;;;;59.30;32.90;;;;;;;-1.16;95.40;98026.23;437394;1248;108494;-40
2023/12/09 19:55:27;;;;;;;89.50;42.80;;;;;;;-1.21;95.42;98009.16;437478;1250;99231;-40
2023/12/09 20:05:34;;;;;;;70.10;37.10;;;;;;;-1.32;95.69;97988.02;437507;1250;111376;-39
2023/12/09 20:15:41;;;;;;;74.40;36.70;;;;;;;-1.32;95.61;97970.09;437309;1248;107084;-41
2023/12/09 20:25:48;;;;;;;75.80;36.50;;;;;;;-1.35;95.67;97959.19;437414;1248;99437;-39
2023/12/09 20:35:55;;;;;;;74.90;37.50;;;;;;;-1.32;95.88;97949.17;437407;1250;107975;-39
2023/12/09 20:46:01;;;;;;;102.60;47.70;;;;;;;-1.20;96.24;97928.99;437455;1250;98721;-39
2023/12/09 21:06:23;;;;;;;71.80;36.60;;;;;;;-0.84;96.50;97907.23;437620;1247;106990;-40
2023/12/09 21:16:28;;;;;;;64.50;33.00;;;;;;;-0.67;96.60;97895.58;437505;1247;97960;-39
2023/12/09 21:26:37;;;;;;;57.40;32.40;;;;;;;-0.51;96.71;97888.77;437427;1248;108446;-38
2023/12/09 21:36:44;;;;;;;81.00;41.40;;;;;;;-0.45;96.77;97882.65;437525;1251;98902;-38
2023/12/09 21:46:51;;;;;;;100.60;47.20;;;;;;;-0.50;96.92;97870.26;437692;1250;110314;-39
2023/12/09 21:56:57;;;;;;;71.80;38.10;;;;;;;-0.49;96.83;97868.25;437467;1248;99301;-40
2023/12/09 22:07:04;;;;;;;69.60;39.20;;;;;;;-0.43;96.96;97834.64;437489;1250;99240;-41
2023/12/09 22:17:11;;;;;;;82.00;42.30;;;;;;;-0.43;96.89;97794.06;437353;1251;111833;-39
2023/12/09 22:27:19;;;;;;;91.20;46.30;;;;;;;-0.61;96.92;97774.36;437444;1250;107537;-39
2023/12/09 22:37:26;;;;;;;75.80;36.80;;;;;;;-0.81;96.76;97786.48;437475;1248;99221;-39
2023/12/09 22:47:33;;;;;;;64.80;34.20;;;;;;;-0.95;96.66;97779.23;437440;1250;108327;-39
2023/12/09 22:57:41;;;;;;;85.60;37.20;;;;;;;-1.06;96.86;97783.29;437437;1248;99295;-39
2023/12/09 23:07:48;;;;;;;80.80;40.20;;;;;;;-1.14;97.05;97772.52;437474;1250;110602;-40
2023/12/09 23:17:56;;;;;;;70.10;38.10;;;;;;;-1.23;97.02;97757.08;437414;1251;108037;-39
2023/12/09 23:28:04;;;;;;;109.10;48.40;;;;;;;-1.33;97.14;97757.17;437383;1250;99205;-40
2023/12/09 23:48:18;;;;;;;68.70;35.40;;;;;;;-1.50;96.88;97748.59;437508;1248;106563;-38
2023/12/09 23:58:27;;;;;;;72.00;36.20;;;;;;;-1.49;97.00;97727.88;437501;1248;99209;-42
